Long Grove, IA (52756)

6:04 AM CDT on August 24, 2016 (GMT -0500)
West Hickory Street | | Change Station

Elev 774 ft 41.65 °N, 90.59 °W | Updated 8 seconds ago

Heavy Thunderstorms and Rain
Heavy Thunderstorm Rain Fog
71.2 °F
Feels Like 71.2 °F
N
3.0
Wind Variable Wind from SSE
Gusts 8.0 mph

Today
High -- | Low -- °F
--% Chance of Precip.
Yesterday
High -- | Low -- °F
Precip. -- in
Pressure 29.94 in
Visibility 0.2 miles
Clouds Few 1000 ft
Mostly Cloudy 2100 ft
Overcast 4800 ft
Dew Point 71 °F
Humidity 99%
Rainfall 0.92 in
Snow Depth Not available.
6:20 AM 7:47 PM
Waning Gibbous, 58% visible
METAR KDVN 241052Z AUTO 17003KT 1/4SM +TSRA FG FEW010 BKN021 OVC048 22/21 A2995 RMK AO2 LTG DSNT N-SE TSB07 SLP138 P0082 T02170211
Pressure 29.94 in
Visibility 0.2 miles
Clouds Few 1000 ft
Mostly Cloudy 2100 ft
Overcast 4800 ft
Dew Point 71 °F
Humidity 99%
Rainfall 0.92 in
Snow Depth Not available.
6:20 AM 7:47 PM
Waning Gibbous, 58% visible
METAR KDVN 241052Z AUTO 17003KT 1/4SM +TSRA FG FEW010 BKN021 OVC048 22/21 A2995 RMK AO2 LTG DSNT N-SE TSB07 SLP138 P0082 T02170211

10-Day Weather Forecast

Almanac

Astronomy

Aug. 24, 2016 Rise Set
Actual Time
Civil Twilight
Nautical Twilight
Astronomical Twilight
Moon
Length of Visible Light
Length of Day
Tomorrow will be .
, % of the Moon is Illuminated

Today's Extremes

State Highs State Lows

Community

WunderPhotos

Upload Photos

1,934,562 photos uploaded!

WunderBlog® & News

Nearby

Air Quality

  Air Quality AQ Index Pollutant
Not available.

Snow Depth

Station Depth Elevation

Earthquake Activity

City Distance Mag. Time & Date
Minimum magnitude displayed is 2.5.

Coastal Water Temperatures

Place Temperature

Stations

Nearby Weather Stations

Station Location Temp. Windchill Dew Point Humidity Wind Precip. Elev Updated Type
                   

Watches & Warnings

There are currently no watches in effect.